createdAt,value
2022-11-15T00:00:32.769Z,84.96
2022-11-15T00:01:32.778Z,85.27
2022-11-15T00:02:32.781Z,85.77
2022-11-15T00:03:32.927Z,85.27
2022-11-15T00:04:32.706Z,85.77
2022-11-15T00:05:32.699Z,85.77
2022-11-15T00:06:32.713Z,85.77
2022-11-15T00:07:54.477Z,84.82
2022-11-15T00:08:33.667Z,84.51
2022-11-15T00:09:32.671Z,84.61
2022-11-15T00:10:32.649Z,84.61
2022-11-15T00:11:32.670Z,84.61
2022-11-15T00:12:32.633Z,84.72
2022-11-15T00:13:33.051Z,84.82
2022-11-15T00:14:32.598Z,84.92
2022-11-15T00:15:32.587Z,84.82
2022-11-15T00:16:32.614Z,84.61
2022-11-15T00:17:32.591Z,84.41
2022-11-15T00:18:32.591Z,84.61
2022-11-15T00:19:32.566Z,84.82
2022-11-15T00:20:32.529Z,84.72
2022-11-15T00:21:32.569Z,84.31
2022-11-15T00:22:32.522Z,84.82
2022-11-15T00:23:32.910Z,85.02
2022-11-15T00:24:32.515Z,84.92
2022-11-15T00:25:32.483Z,85.13
2022-11-15T00:26:32.486Z,85.02
2022-11-15T00:27:32.456Z,85.02
2022-11-15T00:28:32.456Z,84.92
2022-11-15T00:29:32.465Z,85.02
2022-11-15T00:30:32.433Z,84.92
2022-11-15T00:31:32.438Z,85.13
2022-11-15T00:32:32.411Z,84.92
2022-11-15T00:33:32.872Z,84.92
2022-11-15T00:34:32.374Z,84.92
2022-11-15T00:35:32.385Z,85.53
2022-11-15T00:36:32.357Z,85.22
2022-11-15T00:37:32.340Z,85.22
2022-11-15T00:38:32.335Z,85.94
2022-11-15T00:39:32.381Z,85.84
2022-11-15T00:40:32.345Z,85.74
2022-11-15T00:41:32.295Z,85.13
2022-11-15T00:42:32.299Z,85.02
2022-11-15T00:43:32.751Z,84.47
2022-11-15T00:44:32.271Z,84.88
2022-11-15T00:45:32.284Z,84.67
2022-11-15T00:46:32.267Z,84.88
2022-11-15T00:47:32.239Z,84.67
2022-11-15T00:48:32.230Z,84.58
2022-11-15T00:49:32.252Z,84.88
2022-11-15T00:50:32.196Z,84.27
2022-11-15T00:51:32.196Z,84.67
2022-11-15T00:52:32.167Z,84.58
2022-11-15T00:53:32.500Z,84.51
2022-11-15T00:54:32.180Z,85.02
2022-11-15T00:55:32.141Z,85.13
2022-11-15T00:56:32.123Z,84.92
2022-11-15T00:57:32.147Z,85.02
2022-11-15T00:58:32.111Z,84.98
2022-11-15T00:59:32.107Z,84.67
2022-11-15T01:00:32.138Z,84.27
2022-11-15T01:01:32.068Z,84.82
2022-11-15T01:02:32.060Z,84.58
2022-11-15T01:03:32.415Z,84.58
2022-11-15T01:04:32.076Z,84.98
2022-11-15T01:05:32.042Z,84.47
2022-11-15T01:06:32.027Z,84.78
2022-11-15T01:07:32.246Z,84.98
2022-11-15T01:08:32.004Z,84.67
2022-11-15T01:09:32.014Z,84.88
2022-11-15T01:10:31.969Z,84.47
2022-11-15T01:11:31.999Z,84.47
2022-11-15T01:12:31.943Z,84.37
2022-11-15T01:13:32.320Z,84.03
2022-11-15T01:14:31.946Z,84.03
2022-11-15T01:15:31.912Z,83.82
2022-11-15T01:16:31.909Z,84.03
2022-11-15T01:17:31.944Z,83.92
2022-11-15T01:18:31.888Z,84.43
2022-11-15T01:19:31.924Z,83.82
2022-11-15T01:20:31.893Z,84.17
2022-11-15T01:21:31.846Z,83.82
2022-11-15T01:22:31.835Z,83.82
2022-11-15T01:23:32.115Z,83.01
2022-11-15T01:24:31.811Z,83.42
2022-11-15T01:25:31.843Z,83.82
2022-11-15T01:26:31.795Z,83.68
2022-11-15T01:27:31.770Z,83.51
2022-11-15T01:28:31.771Z,83.58
2022-11-15T01:29:31.753Z,83.48
2022-11-15T01:30:31.758Z,83.51
2022-11-15T01:31:31.733Z,83.62
2022-11-15T01:32:31.739Z,83.01
2022-11-15T01:33:32.104Z,83.42
2022-11-15T01:34:31.741Z,83.92
2022-11-15T01:35:31.688Z,83.62
2022-11-15T01:36:31.716Z,83.92
2022-11-15T01:37:31.694Z,83.62
2022-11-15T01:38:31.662Z,83.51
2022-11-15T01:39:31.661Z,83.62
2022-11-15T01:40:31.680Z,83.51
2022-11-15T01:41:31.614Z,83.56
2022-11-15T01:42:31.647Z,83.42
2022-11-15T01:43:32.077Z,83.42
2022-11-15T01:44:31.603Z,83.82
2022-11-15T01:45:31.583Z,83.82
2022-11-15T01:46:31.565Z,83.82
2022-11-15T01:47:31.595Z,83.72
2022-11-15T01:48:31.571Z,83.82
2022-11-15T01:49:31.532Z,83.62
2022-11-15T01:50:31.530Z,83.65
2022-11-15T01:51:31.527Z,82.90
2022-11-15T01:52:31.520Z,83.31
2022-11-15T01:53:31.906Z,83.21
2022-11-15T01:54:31.482Z,83.11
2022-11-15T01:55:31.458Z,83.31
2022-11-15T01:56:31.461Z,83.15
2022-11-15T01:57:31.433Z,83.56
2022-11-15T01:58:31.435Z,83.56
2022-11-15T01:59:31.439Z,83.45
2022-11-15T02:00:31.570Z,83.56
2022-11-15T02:01:31.400Z,84.17
2022-11-15T02:02:31.404Z,84.11
2022-11-15T02:03:31.746Z,83.80
2022-11-15T02:04:31.355Z,84.51
2022-11-15T02:05:52.349Z,83.80
2022-11-15T02:06:31.334Z,83.80
2022-11-15T02:07:31.387Z,84.61
2022-11-15T02:08:31.381Z,84.20
2022-11-15T02:09:31.332Z,85.02
2022-11-15T02:10:31.296Z,84.86
2022-11-15T02:11:31.269Z,84.61
2022-11-15T02:12:32.598Z,84.82
2022-11-15T02:13:31.617Z,84.72
2022-11-15T02:14:31.311Z,84.41
2022-11-15T02:15:31.231Z,84.82
2022-11-15T02:16:31.238Z,84.72
2022-11-15T02:17:31.209Z,84.37
2022-11-15T02:18:31.214Z,84.27
2022-11-15T02:19:31.214Z,83.96
2022-11-15T02:20:31.184Z,83.76
2022-11-15T02:23:51.370Z,83.31
2022-11-15T02:24:51.357Z,83.25
2022-11-15T02:25:51.327Z,83.65
2022-11-15T02:26:51.314Z,83.76
2022-11-15T02:27:51.323Z,83.45
2022-11-15T02:28:51.298Z,83.56
2022-11-15T02:29:51.318Z,83.45
2022-11-15T02:30:51.298Z,84.00
2022-11-15T02:31:51.275Z,84.11
2022-11-15T02:32:51.257Z,84.20
2022-11-15T02:33:51.230Z,84.00
2022-11-15T02:34:51.278Z,84.00
2022-11-15T02:35:51.238Z,83.70
2022-11-15T02:36:51.200Z,83.70
2022-11-15T02:37:51.230Z,84.00
2022-11-15T02:38:51.201Z,83.80
2022-11-15T02:39:51.179Z,83.49
2022-11-15T02:40:51.291Z,83.80
2022-11-15T02:41:51.147Z,83.94
2022-11-15T02:42:51.129Z,83.80
2022-11-15T02:43:51.131Z,84.34
2022-11-15T02:44:51.142Z,84.55
2022-11-15T02:45:51.178Z,84.75
2022-11-15T02:46:51.090Z,84.55
2022-11-15T02:47:51.616Z,85.06
2022-11-15T02:48:51.092Z,84.75
2022-11-15T02:49:51.080Z,84.45
2022-11-15T02:50:51.077Z,84.55
2022-11-15T02:51:51.045Z,84.86
2022-11-15T02:52:51.052Z,84.86
2022-11-15T02:53:51.016Z,84.45
2022-11-15T02:54:51.009Z,84.86
2022-11-15T02:55:51.004Z,84.55
2022-11-15T02:56:50.975Z,84.14
2022-11-15T02:57:50.984Z,84.45
2022-11-15T02:58:50.960Z,84.45
2022-11-15T02:59:50.945Z,84.25
2022-11-15T03:00:51.045Z,84.96
2022-11-15T03:01:50.936Z,84.14
2022-11-15T03:02:50.918Z,84.55
2022-11-15T03:03:58.958Z,84.55
2022-11-15T03:04:50.946Z,84.66
2022-11-15T03:05:50.887Z,84.96
2022-11-15T03:06:50.984Z,84.90
2022-11-15T03:07:50.901Z,84.59
2022-11-15T03:08:50.847Z,85.00
2022-11-15T03:09:50.878Z,84.90
2022-11-15T03:10:50.841Z,84.90
2022-11-15T03:11:50.849Z,85.00
2022-11-15T03:12:50.804Z,85.00
2022-11-15T03:13:50.788Z,85.21
2022-11-15T03:14:50.782Z,84.90
2022-11-15T03:15:50.762Z,85.10
2022-11-15T03:16:50.778Z,85.21
2022-11-15T03:17:50.783Z,84.90
2022-11-15T03:18:50.776Z,85.00
2022-11-15T03:19:50.717Z,84.39
2022-11-15T03:20:50.707Z,84.74
2022-11-15T03:21:50.715Z,84.94
2022-11-15T03:22:50.681Z,85.30
2022-11-15T03:23:50.691Z,85.14
2022-11-15T03:24:50.659Z,86.06
2022-11-15T03:25:50.656Z,85.75
2022-11-15T03:26:50.733Z,85.96
2022-11-15T03:27:50.649Z,85.96
2022-11-15T03:28:50.663Z,85.86
2022-11-15T03:29:50.636Z,85.96
2022-11-15T03:30:50.626Z,85.75
2022-11-15T03:31:51.512Z,85.86
2022-11-15T03:32:50.564Z,85.96
2022-11-15T03:33:50.560Z,86.06
2022-11-15T03:34:50.547Z,86.16
2022-11-15T03:35:50.545Z,85.96
2022-11-15T03:36:50.596Z,85.75
2022-11-15T03:37:50.587Z,85.55
2022-11-15T03:38:50.505Z,85.75
2022-11-15T03:39:50.485Z,85.75
2022-11-15T03:40:50.479Z,85.75
2022-11-15T03:41:50.468Z,85.55
2022-11-15T03:42:50.475Z,85.86
2022-11-15T03:43:50.461Z,85.96
2022-11-15T03:44:50.427Z,85.65
2022-11-15T03:45:50.423Z,85.75
2022-11-15T03:46:50.410Z,85.75
2022-11-15T03:47:50.604Z,86.06
2022-11-15T03:48:50.390Z,85.96
2022-11-15T03:49:50.372Z,85.35
2022-11-15T03:50:50.367Z,86.20
2022-11-15T03:51:50.355Z,86.41
2022-11-15T03:52:50.380Z,86.71
2022-11-15T03:53:50.327Z,86.82
2022-11-15T03:54:50.321Z,86.41
2022-11-15T03:55:50.335Z,86.61
2022-11-15T03:56:50.333Z,86.91
2022-11-15T03:57:50.324Z,86.36
2022-11-15T03:58:50.269Z,86.41
2022-11-15T03:59:50.356Z,86.61
2022-11-15T04:00:50.308Z,86.51
2022-11-15T04:01:51.130Z,87.43
2022-11-15T04:02:50.236Z,87.32
2022-11-15T04:03:50.406Z,87.23
2022-11-15T04:04:50.202Z,87.23
2022-11-15T04:05:50.315Z,87.23
2022-11-15T04:06:50.237Z,87.12
2022-11-15T04:07:50.197Z,87.32
2022-11-15T04:08:50.187Z,87.32
2022-11-15T04:09:50.236Z,87.32
2022-11-15T04:10:50.164Z,87.53
2022-11-15T04:11:50.249Z,87.63
2022-11-15T04:12:50.132Z,87.32
2022-11-15T04:13:50.292Z,87.26
2022-11-15T04:14:50.090Z,87.26
2022-11-15T04:15:50.337Z,87.37
2022-11-15T04:16:50.065Z,87.67
2022-11-15T04:17:50.094Z,87.51
2022-11-15T04:18:50.156Z,87.10
2022-11-15T04:19:50.082Z,88.06
2022-11-15T04:20:50.068Z,88.26
2022-11-15T04:21:50.047Z,88.51
2022-11-15T04:22:50.123Z,89.43
2022-11-15T04:23:50.015Z,89.70
2022-11-15T04:24:49.975Z,89.39
2022-11-15T04:25:49.993Z,88.98
2022-11-15T04:26:49.969Z,89.09
2022-11-15T04:27:49.982Z,89.50
2022-11-15T04:28:49.933Z,89.18
2022-11-15T04:29:49.929Z,89.39
2022-11-15T04:30:49.938Z,89.90
2022-11-15T04:31:49.940Z,89.23
2022-11-15T04:32:49.883Z,89.39
2022-11-15T04:33:50.633Z,89.39
2022-11-15T04:34:49.861Z,89.74
2022-11-15T04:35:49.859Z,88.92
2022-11-15T04:36:49.868Z,89.53
2022-11-15T04:37:49.840Z,89.43
2022-11-15T04:38:49.819Z,89.43
2022-11-15T04:39:49.808Z,89.53
2022-11-15T04:40:49.826Z,89.43
2022-11-15T04:41:49.808Z,89.43
2022-11-15T04:42:49.774Z,89.43
2022-11-15T04:43:49.787Z,89.43
2022-11-15T04:44:49.749Z,89.53
2022-11-15T04:45:49.766Z,89.43
2022-11-15T04:46:49.757Z,89.12
2022-11-15T04:47:49.760Z,89.47
2022-11-15T04:48:53.025Z,89.37
2022-11-15T04:49:50.715Z,89.78
2022-11-15T04:50:49.680Z,89.89
2022-11-15T04:51:49.693Z,89.37
2022-11-15T04:52:49.677Z,89.83
2022-11-15T04:53:49.650Z,89.83
2022-11-15T04:54:49.652Z,90.23
2022-11-15T04:55:49.696Z,90.44
2022-11-15T04:56:49.706Z,91.05
2022-11-15T04:57:49.605Z,90.44
2022-11-15T04:58:49.734Z,90.13
2022-11-15T04:59:49.581Z,90.17
2022-11-15T05:00:49.717Z,90.75
2022-11-15T05:01:49.556Z,90.37
2022-11-15T05:02:49.548Z,91.71
2022-11-15T05:03:49.564Z,91.20
2022-11-15T05:04:49.549Z,91.30
2022-11-15T05:05:49.518Z,91.35
2022-11-15T05:06:49.517Z,91.14
2022-11-15T05:07:49.487Z,91.65
2022-11-15T05:08:49.473Z,91.96
2022-11-15T05:09:49.484Z,91.69
2022-11-15T05:10:49.450Z,91.49
2022-11-15T05:11:49.443Z,92.21
2022-11-15T05:12:49.434Z,92.51
2022-11-15T05:13:49.423Z,92.31
2022-11-15T05:14:49.443Z,92.10
2022-11-15T05:15:49.410Z,92.21
2022-11-15T05:16:49.384Z,92.93
2022-11-15T05:17:49.399Z,92.21
2022-11-15T05:18:49.359Z,92.51
2022-11-15T05:19:49.374Z,92.61
2022-11-15T05:20:49.345Z,92.41
2022-11-15T05:21:49.360Z,92.31
2022-11-15T05:22:49.324Z,92.31
2022-11-15T05:23:49.308Z,92.72
2022-11-15T05:24:49.296Z,92.55
2022-11-15T05:25:49.335Z,92.46
2022-11-15T05:26:49.292Z,92.35
2022-11-15T05:27:49.295Z,92.76
2022-11-15T05:28:49.252Z,92.66
2022-11-15T05:29:49.248Z,92.66
2022-11-15T05:30:49.226Z,92.35
2022-11-15T05:31:49.221Z,92.55
2022-11-15T05:32:49.223Z,92.76
2022-11-15T05:33:49.196Z,93.17
2022-11-15T05:34:49.200Z,92.97
2022-11-15T05:35:49.188Z,93.12
2022-11-15T05:36:49.187Z,92.91
2022-11-15T05:37:49.153Z,92.40
2022-11-15T05:38:49.163Z,92.50
2022-11-15T05:39:49.133Z,92.60
2022-11-15T05:40:49.116Z,92.76
2022-11-15T05:41:49.168Z,92.60
2022-11-15T05:42:49.127Z,92.60
2022-11-15T05:43:49.086Z,92.86
2022-11-15T05:44:49.070Z,92.70
2022-11-15T05:45:49.059Z,92.91
2022-11-15T05:46:49.130Z,93.01
2022-11-15T05:47:49.048Z,92.86
2022-11-15T05:48:49.043Z,92.70
2022-11-15T05:49:49.039Z,92.91
2022-11-15T05:50:49.022Z,92.91
2022-11-15T05:51:49.245Z,92.97
2022-11-15T05:52:48.979Z,93.17
2022-11-15T05:53:48.969Z,93.27
2022-11-15T05:54:48.976Z,93.07
2022-11-15T05:55:48.945Z,93.07
2022-11-15T05:56:48.936Z,93.07
2022-11-15T05:57:48.929Z,93.27
2022-11-15T05:58:48.936Z,93.27
2022-11-15T05:59:48.909Z,93.12
2022-11-15T06:00:48.893Z,93.17
2022-11-15T06:01:48.918Z,93.17
2022-11-15T06:02:48.885Z,93.27
2022-11-15T06:03:48.889Z,93.38
2022-11-15T06:04:48.843Z,93.17
2022-11-15T06:05:48.832Z,93.32
2022-11-15T06:06:48.886Z,92.86
2022-11-15T06:07:48.839Z,92.55
2022-11-15T06:08:48.811Z,92.97
2022-11-15T06:09:48.822Z,92.76
2022-11-15T06:10:48.772Z,92.76
2022-11-15T06:11:48.775Z,92.55
2022-11-15T06:12:48.752Z,93.38
2022-11-15T06:13:48.743Z,92.46
2022-11-15T06:14:48.765Z,93.38
2022-11-15T06:15:48.729Z,93.07
2022-11-15T06:16:48.795Z,93.02
2022-11-15T06:17:48.700Z,93.38
2022-11-15T06:18:48.686Z,93.38
2022-11-15T06:19:48.688Z,93.17
2022-11-15T06:20:48.689Z,93.23
2022-11-15T06:21:48.656Z,92.61
2022-11-15T06:22:48.669Z,92.72
2022-11-15T06:23:48.731Z,92.51
2022-11-15T06:24:48.626Z,92.51
2022-11-15T06:25:48.646Z,92.41
2022-11-15T06:26:48.599Z,92.31
2022-11-15T06:27:48.591Z,92.82
2022-11-15T06:28:48.579Z,92.93
2022-11-15T06:29:48.565Z,92.31
2022-11-15T06:30:53.012Z,92.93
2022-11-15T06:31:48.565Z,92.31
2022-11-15T06:32:48.560Z,92.31
2022-11-15T06:33:48.534Z,92.31
2022-11-15T06:34:48.510Z,92.51
2022-11-15T06:35:48.523Z,92.93
2022-11-15T06:36:48.493Z,92.61
2022-11-15T06:37:48.497Z,92.51
2022-11-15T06:38:48.457Z,92.72
2022-11-15T06:39:48.544Z,92.82
2022-11-15T06:40:48.469Z,92.72
2022-11-15T06:41:48.461Z,92.51
2022-11-15T06:42:48.422Z,92.82
2022-11-15T06:43:48.437Z,93.02
2022-11-15T06:44:48.401Z,92.82
2022-11-15T06:45:48.385Z,92.98
2022-11-15T06:46:48.366Z,92.27
2022-11-15T06:47:48.383Z,91.55
2022-11-15T06:48:48.366Z,92.16
2022-11-15T06:49:48.369Z,91.55
2022-11-15T06:50:48.321Z,92.57
2022-11-15T06:51:48.319Z,92.06
2022-11-15T06:52:48.330Z,91.86
2022-11-15T06:53:48.316Z,92.36
2022-11-15T06:54:48.277Z,91.55
2022-11-15T06:55:53.424Z,91.55
2022-11-15T06:56:49.255Z,91.44
2022-11-15T06:57:48.260Z,91.50
2022-11-15T06:58:48.281Z,91.82
2022-11-15T06:59:48.229Z,90.83
2022-11-15T07:00:48.306Z,91.24
2022-11-15T07:01:48.320Z,91.14
2022-11-15T07:02:48.193Z,91.14
2022-11-15T07:03:48.205Z,91.03
2022-11-15T07:04:48.167Z,91.09
2022-11-15T07:05:48.194Z,91.14
2022-11-15T07:06:48.191Z,91.24
2022-11-15T07:07:48.163Z,91.35
2022-11-15T07:08:48.118Z,91.44
2022-11-15T07:09:48.140Z,91.44
2022-11-15T07:10:48.104Z,91.24
2022-11-15T07:11:48.122Z,91.14
2022-11-15T07:12:48.074Z,91.09
2022-11-15T07:13:48.069Z,91.14
2022-11-15T07:14:48.075Z,91.14
2022-11-15T07:15:48.062Z,91.44
2022-11-15T07:16:48.070Z,91.44
2022-11-15T07:17:48.027Z,90.93
2022-11-15T07:18:48.010Z,90.73
2022-11-15T07:19:47.993Z,91.86
2022-11-15T07:20:48.007Z,91.65
2022-11-15T07:21:47.980Z,91.44
2022-11-15T07:22:47.969Z,91.86
2022-11-15T07:23:47.955Z,91.75
2022-11-15T07:24:47.966Z,92.47
2022-11-15T07:25:47.931Z,92.57
2022-11-15T07:26:47.919Z,92.41
2022-11-15T07:27:47.927Z,92.00
2022-11-15T07:28:47.892Z,92.10
2022-11-15T07:29:47.921Z,92.10
2022-11-15T07:30:47.901Z,92.41
2022-11-15T07:31:47.872Z,92.31
2022-11-15T07:32:47.853Z,91.80
2022-11-15T07:33:47.841Z,91.80
2022-11-15T07:34:47.827Z,92.72
2022-11-15T07:35:47.952Z,92.82
2022-11-15T07:36:47.811Z,92.82
2022-11-15T07:37:47.821Z,92.51
2022-11-15T07:38:47.897Z,92.31
2022-11-15T07:39:47.784Z,92.57
2022-11-15T07:40:47.808Z,92.57
2022-11-15T07:41:47.753Z,92.88
2022-11-15T07:42:47.747Z,92.47
2022-11-15T07:43:47.746Z,92.88
2022-11-15T07:44:47.747Z,92.12
2022-11-15T07:45:47.740Z,92.02
2022-11-15T07:46:47.693Z,92.43
2022-11-15T07:47:47.677Z,91.61
2022-11-15T07:48:47.714Z,91.30
2022-11-15T07:49:47.658Z,90.54
2022-11-15T07:50:47.647Z,91.16
2022-11-15T07:51:47.652Z,90.23
2022-11-15T07:52:47.657Z,90.03
2022-11-15T07:53:47.617Z,89.83
2022-11-15T07:54:47.617Z,90.44
2022-11-15T07:55:47.601Z,90.23
2022-11-15T07:56:47.581Z,90.58
2022-11-15T07:57:47.568Z,90.07
2022-11-15T07:58:47.594Z,90.37
2022-11-15T07:59:47.602Z,90.79
2022-11-15T08:00:47.568Z,90.34
2022-11-15T08:01:47.674Z,90.13
2022-11-15T08:02:47.674Z,90.23
2022-11-15T08:03:47.502Z,90.13
2022-11-15T08:04:47.497Z,90.23
2022-11-15T08:05:47.496Z,90.37
2022-11-15T08:06:47.539Z,90.34
2022-11-15T08:07:47.458Z,90.54
2022-11-15T08:08:47.445Z,91.05
2022-11-15T08:09:47.461Z,91.30
2022-11-15T08:10:47.471Z,90.84
2022-11-15T08:11:47.411Z,90.89
2022-11-15T08:12:47.491Z,91.16
2022-11-15T08:13:47.395Z,90.79
2022-11-15T08:14:47.375Z,90.69
2022-11-15T08:15:47.450Z,90.89
2022-11-15T08:16:47.387Z,91.30
2022-11-15T08:17:47.341Z,91.09
2022-11-15T08:18:47.384Z,91.20
2022-11-15T08:19:47.324Z,91.09
2022-11-15T08:20:47.345Z,91.44
2022-11-15T08:21:47.296Z,92.06
2022-11-15T08:22:47.294Z,91.50
2022-11-15T08:23:47.290Z,91.50
2022-11-15T08:24:47.343Z,91.61
2022-11-15T08:25:47.252Z,91.36
2022-11-15T08:26:47.367Z,91.09
2022-11-15T08:27:47.225Z,91.36
2022-11-15T08:28:47.217Z,91.26
2022-11-15T08:29:47.233Z,91.20
2022-11-15T08:30:47.215Z,91.09
2022-11-15T08:31:47.287Z,91.30
2022-11-15T08:32:47.179Z,91.30
2022-11-15T08:33:47.189Z,91.30
2022-11-15T08:34:47.162Z,91.20
2022-11-15T08:35:47.162Z,91.50
2022-11-15T08:36:47.137Z,90.89
2022-11-15T08:37:47.111Z,90.44
2022-11-15T08:38:47.133Z,90.34
2022-11-15T08:39:47.096Z,90.13
2022-11-15T08:40:47.137Z,90.39
2022-11-15T08:41:47.119Z,89.27
2022-11-15T08:42:47.072Z,89.42
2022-11-15T08:43:47.075Z,89.78
2022-11-15T08:44:47.045Z,90.09
2022-11-15T08:45:47.046Z,89.27
2022-11-15T08:46:47.014Z,89.06
2022-11-15T08:47:52.731Z,89.47
2022-11-15T08:48:48.086Z,89.33
2022-11-15T08:49:46.981Z,89.94
2022-11-15T08:50:46.973Z,88.41
2022-11-15T08:51:46.964Z,88.57
2022-11-15T08:52:46.951Z,87.82
2022-11-15T08:53:46.956Z,87.30
2022-11-15T08:54:46.923Z,86.24
2022-11-15T08:55:46.904Z,85.83
2022-11-15T08:56:46.906Z,85.83
2022-11-15T08:57:46.896Z,85.89
2022-11-15T08:58:46.920Z,85.28
2022-11-15T08:59:46.895Z,84.98
2022-11-15T09:00:46.864Z,84.94
2022-11-15T09:01:46.855Z,84.53
2022-11-15T09:02:46.864Z,84.42
2022-11-15T09:03:46.883Z,84.22
2022-11-15T09:04:46.822Z,83.26
2022-11-15T09:05:46.797Z,83.78
2022-11-15T09:06:46.838Z,83.57
2022-11-15T09:07:46.798Z,83.57
2022-11-15T09:08:57.310Z,83.67
2022-11-15T09:09:47.761Z,82.55
2022-11-15T09:10:46.794Z,82.65
2022-11-15T09:11:47.702Z,82.61
2022-11-15T09:12:46.753Z,82.31
2022-11-15T09:13:46.766Z,81.59
2022-11-15T09:14:46.709Z,81.49
2022-11-15T09:15:46.689Z,81.80
2022-11-15T09:16:46.697Z,81.35
2022-11-15T09:17:46.672Z,81.09
2022-11-15T09:18:46.706Z,80.78
2022-11-15T09:19:46.676Z,81.25
2022-11-15T09:20:46.630Z,81.09
2022-11-15T09:21:46.631Z,81.04
2022-11-15T09:22:46.623Z,81.15
2022-11-15T09:23:46.874Z,81.45
2022-11-15T09:24:46.584Z,80.84
2022-11-15T09:25:46.586Z,80.94
2022-11-15T09:26:46.558Z,81.25
2022-11-15T09:27:46.582Z,80.80
2022-11-15T09:28:46.540Z,80.80
2022-11-15T09:29:46.524Z,80.77
2022-11-15T09:30:46.543Z,80.19
2022-11-15T09:31:46.508Z,80.77
2022-11-15T09:32:46.504Z,80.46
2022-11-15T09:33:46.510Z,79.24
2022-11-15T09:34:46.473Z,79.75
2022-11-15T09:35:46.476Z,79.44
2022-11-15T09:36:46.522Z,79.41
2022-11-15T09:37:46.477Z,80.11
2022-11-15T09:38:46.433Z,80.52
2022-11-15T09:39:46.407Z,79.10
2022-11-15T09:40:46.401Z,79.91
2022-11-15T09:41:46.394Z,79.47
2022-11-15T09:42:46.538Z,79.30
2022-11-15T09:43:46.511Z,79.57
2022-11-15T09:44:46.367Z,79.16
2022-11-15T09:45:46.377Z,78.76
2022-11-15T09:46:46.349Z,77.74
2022-11-15T09:47:46.333Z,78.45
2022-11-15T09:48:46.318Z,79.02
2022-11-15T09:49:46.325Z,78.76
2022-11-15T09:50:46.298Z,78.05
2022-11-15T09:51:46.291Z,77.84
2022-11-15T09:52:46.294Z,78.25
2022-11-15T09:54:55.861Z,78.05
2022-11-15T09:55:47.232Z,78.15
2022-11-15T09:56:46.245Z,77.84
2022-11-15T09:57:46.209Z,77.53
2022-11-15T09:58:46.228Z,77.84
2022-11-15T09:59:46.205Z,78.45
2022-11-15T10:00:48.018Z,78.35
2022-11-15T10:01:46.205Z,78.45
2022-11-15T10:02:46.161Z,79.16
2022-11-15T10:03:46.139Z,78.72
2022-11-15T10:04:46.170Z,78.99
2022-11-15T10:05:46.120Z,77.97
2022-11-15T10:06:46.169Z,77.67
2022-11-15T10:07:46.164Z,76.75
2022-11-15T10:08:46.090Z,76.61
2022-11-15T10:09:46.100Z,77.87
2022-11-15T10:10:46.065Z,76.86
2022-11-15T10:11:46.075Z,77.63
2022-11-15T10:12:46.045Z,77.47
2022-11-15T10:13:46.027Z,77.87
2022-11-15T10:14:50.294Z,77.56
2022-11-15T10:15:47.005Z,76.75
2022-11-15T10:16:46.005Z,77.77
2022-11-15T10:17:45.988Z,77.53
2022-11-15T10:18:45.974Z,77.53
2022-11-15T10:19:45.982Z,76.61
2022-11-15T10:20:45.946Z,76.31
2022-11-15T10:21:45.964Z,76.10
2022-11-15T10:22:45.927Z,76.01
2022-11-15T10:23:45.953Z,77.29
2022-11-15T10:24:45.928Z,77.59
2022-11-15T10:25:45.897Z,77.29
2022-11-15T10:26:45.881Z,77.49
2022-11-15T10:27:45.875Z,77.59
2022-11-15T10:28:45.947Z,76.54
2022-11-15T10:29:45.871Z,77.45
2022-11-15T10:30:45.846Z,76.64
2022-11-15T10:31:45.824Z,76.34
2022-11-15T10:32:45.819Z,76.14
2022-11-15T10:33:45.820Z,75.93
2022-11-15T10:34:45.795Z,76.64
2022-11-15T10:35:45.781Z,77.45
2022-11-15T10:36:50.152Z,75.22
2022-11-15T10:37:45.754Z,76.17
2022-11-15T10:38:45.777Z,76.14
2022-11-15T10:39:45.746Z,76.03
2022-11-15T10:40:45.726Z,75.93
2022-11-15T10:41:45.732Z,75.83
2022-11-15T10:42:45.709Z,74.98
2022-11-15T10:43:45.736Z,76.10
2022-11-15T10:44:45.794Z,75.29
2022-11-15T10:45:45.668Z,74.98
2022-11-15T10:46:47.548Z,75.56
2022-11-15T10:47:45.665Z,75.66
2022-11-15T10:48:45.675Z,74.91
2022-11-15T10:49:45.629Z,75.22
2022-11-15T10:50:45.605Z,75.22
2022-11-15T10:51:45.603Z,73.43
2022-11-15T10:52:45.634Z,73.93
2022-11-15T10:53:45.573Z,73.73
2022-11-15T10:54:45.643Z,73.63
2022-11-15T10:55:45.566Z,73.93
2022-11-15T10:56:45.537Z,73.93
2022-11-15T10:57:45.531Z,74.41
2022-11-15T10:58:45.559Z,74.51
2022-11-15T10:59:45.505Z,74.00
2022-11-15T11:00:45.503Z,73.70
2022-11-15T11:01:45.616Z,74.00
2022-11-15T11:02:45.488Z,73.90
2022-11-15T11:03:45.507Z,73.70
2022-11-15T11:04:45.467Z,73.39
2022-11-15T11:05:45.472Z,73.29
2022-11-15T11:06:45.510Z,73.25
2022-11-15T11:07:45.415Z,72.78
2022-11-15T11:08:45.406Z,73.05
2022-11-15T11:09:45.509Z,74.07
2022-11-15T11:10:51.766Z,73.56
2022-11-15T11:11:46.388Z,72.92
2022-11-15T11:12:45.374Z,73.32
2022-11-15T11:13:45.388Z,72.61
2022-11-15T11:14:45.449Z,73.02
2022-11-15T11:15:45.348Z,73.73
2022-11-15T11:16:45.359Z,73.63
2022-11-15T11:17:45.303Z,72.61
2022-11-15T11:18:45.291Z,73.29
2022-11-15T11:19:45.288Z,73.39
2022-11-15T11:20:45.292Z,73.59
2022-11-15T11:21:45.282Z,72.99
2022-11-15T11:22:45.251Z,73.09
2022-11-15T11:23:45.231Z,73.29
2022-11-15T11:24:45.232Z,73.59
2022-11-15T11:25:45.265Z,73.12
2022-11-15T11:26:45.237Z,73.39
2022-11-15T11:27:45.202Z,72.88
2022-11-15T11:28:45.175Z,72.99
2022-11-15T11:29:45.171Z,73.02
2022-11-15T11:30:45.208Z,74.00
2022-11-15T11:31:45.162Z,73.69
2022-11-15T11:32:45.137Z,73.29
2022-11-15T11:33:45.125Z,73.69
2022-11-15T11:34:45.110Z,72.81
2022-11-15T11:35:45.101Z,73.43
2022-11-15T11:36:45.124Z,72.41
2022-11-15T11:37:45.080Z,73.25
2022-11-15T11:38:45.074Z,72.96
2022-11-15T11:39:45.056Z,73.53
2022-11-15T11:40:45.039Z,73.22
2022-11-15T11:41:45.055Z,73.86
2022-11-15T11:42:45.019Z,74.24
2022-11-15T11:43:45.304Z,75.04
2022-11-15T11:44:45.016Z,74.24
2022-11-15T11:45:47.428Z,74.33
2022-11-15T11:46:44.973Z,73.43
2022-11-15T11:47:44.962Z,73.43
2022-11-15T11:48:44.954Z,73.93
2022-11-15T11:49:44.980Z,73.12
2022-11-15T11:50:44.927Z,73.32
2022-11-15T11:51:44.919Z,73.43
2022-11-15T11:52:44.905Z,73.83
2022-11-15T11:53:44.895Z,73.43
2022-11-15T11:54:44.906Z,73.80
2022-11-15T11:55:44.876Z,74.30
2022-11-15T11:56:44.858Z,74.20
2022-11-15T11:57:44.873Z,73.59
2022-11-15T11:58:44.900Z,73.09
2022-11-15T11:59:44.874Z,73.19
2022-11-15T12:00:44.840Z,73.90
2022-11-15T12:01:45.033Z,73.49
2022-11-15T12:02:44.982Z,73.83
2022-11-15T12:03:44.782Z,73.43
2022-11-15T12:04:44.777Z,73.93
2022-11-15T12:05:44.763Z,73.32
2022-11-15T12:06:44.785Z,73.83
2022-11-15T12:07:44.754Z,73.76
2022-11-15T12:08:44.775Z,74.27
2022-11-15T12:09:44.764Z,75.28
2022-11-15T12:10:44.704Z,74.98
2022-11-15T12:11:44.748Z,74.41
2022-11-15T12:12:44.725Z,75.62
2022-11-15T12:13:44.708Z,75.22
2022-11-15T12:14:44.670Z,75.12
2022-11-15T12:15:44.681Z,75.12
2022-11-15T12:16:44.636Z,75.22
2022-11-15T12:17:44.647Z,75.62
2022-11-15T12:18:44.647Z,75.73
2022-11-15T12:19:44.612Z,75.42
2022-11-15T12:20:44.593Z,75.52
2022-11-15T12:21:44.588Z,76.23
2022-11-15T12:22:44.589Z,76.03
2022-11-15T12:23:44.568Z,75.38
2022-11-15T12:24:44.597Z,75.01
2022-11-15T12:25:44.532Z,74.21
2022-11-15T12:26:44.647Z,74.21
2022-11-15T12:27:44.538Z,75.22
2022-11-15T12:29:04.536Z,75.22
2022-11-15T12:29:45.512Z,75.22
2022-11-15T12:30:44.501Z,75.22
2022-11-15T12:31:44.494Z,75.12
2022-11-15T12:32:44.463Z,75.32
2022-11-15T12:33:44.439Z,75.42
2022-11-15T12:34:44.435Z,75.22
2022-11-15T12:35:44.447Z,74.91
2022-11-15T12:36:44.435Z,75.12
2022-11-15T12:37:44.421Z,74.10
2022-11-15T12:38:44.390Z,75.32
2022-11-15T12:39:44.381Z,75.32
2022-11-15T12:40:44.362Z,75.12
2022-11-15T12:41:44.351Z,75.42
2022-11-15T12:42:44.359Z,75.01
2022-11-15T12:43:44.329Z,75.62
2022-11-15T12:44:44.364Z,75.93
2022-11-15T12:45:44.310Z,75.42
2022-11-15T12:46:44.308Z,75.42
2022-11-15T12:47:44.337Z,76.03
2022-11-15T12:48:44.293Z,75.89
2022-11-15T12:49:44.271Z,75.42
2022-11-15T12:50:44.257Z,75.28
2022-11-15T12:51:44.247Z,75.18
2022-11-15T12:52:44.255Z,75.18
2022-11-15T12:53:44.217Z,74.51
2022-11-15T12:54:44.223Z,74.37
2022-11-15T12:55:44.201Z,74.00